Time;durP1;ratioP1;P1;durP2;ratioP2;P2;SDS_P1;SDS_P2;PMS_P1;PMS_P2;Temp;Humidity;BMP_temperature;BMP_pressure;BME280_temperature;BME280_humidity;BME280_pressure;Samples;Min_cycle;Max_cycle;Signal;HPM_P1;HPM_P2
2021/04/12 00:00:38;;;;;;;9.17;3.60;;;;;0.90;101859.00;;;;10461700;28;20241;-78
2021/04/12 00:06:03;;;;;;;10.23;4.00;;;;;0.90;101865.00;;;;10445632;28;20194;-78
2021/04/12 00:11:34;;;;;;;5.93;3.60;;;;;0.90;101871.00;;;;10461228;28;20691;-78
2021/04/12 00:16:59;;;;;;;6.03;3.00;;;;;0.90;101873.00;;;;10448137;28;20201;-78
2021/04/12 00:22:10;;;;;;;8.23;3.27;;;;;0.80;101872.00;;;;10428985;28;20320;-78
2021/04/12 00:27:32;;;;;;;3.93;2.90;;;;;0.80;101882.00;;;;10456411;28;20213;-78
2021/04/12 00:32:37;;;;;;;5.73;3.07;;;;;0.70;101882.00;;;;10422752;28;20201;-76
2021/04/12 00:37:52;;;;;;;5.27;3.23;;;;;0.50;101882.00;;;;10437853;28;20193;-77
2021/04/12 00:43:34;;;;;;;6.67;2.70;;;;;0.40;101894.00;;;;10421617;28;20221;-76
2021/04/12 00:48:44;;;;;;;6.43;3.30;;;;;0.30;101902.00;;;;10439088;28;20193;-77
2021/04/12 00:54:19;;;;;;;7.57;3.07;;;;;0.20;101902.00;;;;10440274;28;20186;-77
2021/04/12 00:59:27;;;;;;;4.53;2.80;;;;;0.10;101908.00;;;;10423643;28;20607;-76
2021/04/12 01:04:43;;;;;;;5.30;2.83;;;;;0.00;101900.00;;;;10454997;28;20218;-76
2021/04/12 01:10:17;;;;;;;6.33;2.97;;;;;0.00;101908.00;;;;10439466;28;20182;-76
2021/04/12 01:15:47;;;;;;;4.63;3.20;;;;;0.00;101918.00;;;;10455180;28;20225;-76
2021/04/12 01:21:17;;;;;;;5.07;3.10;;;;;0.10;101918.00;;;;10438344;28;20619;-77
2021/04/12 01:26:50;;;;;;;9.30;4.13;;;;;0.10;101919.00;;;;10455927;28;20194;-77
2021/04/12 01:32:13;;;;;;;4.50;3.87;;;;;0.10;101913.00;;;;10454485;28;20362;-76
2021/04/12 01:37:36;;;;;;;7.97;4.37;;;;;0.20;101916.00;;;;10420947;28;20201;-77
2021/04/12 01:42:37;;;;;;;8.77;4.60;;;;;0.20;101912.00;;;;10454490;28;20217;-76
2021/04/12 01:47:44;;;;;;;9.60;4.83;;;;;0.20;101915.00;;;;10423273;28;20208;-77
2021/04/12 01:52:58;;;;;;;9.10;5.40;;;;;0.10;101930.00;;;;10462535;28;20190;-77
2021/04/12 01:58:11;;;;;;;9.17;4.97;;;;;0.10;101933.00;;;;10446228;28;20201;-76
2021/04/12 02:03:31;;;;;;;8.00;5.30;;;;;0.00;101923.00;;;;10445665;28;20218;-76
2021/04/12 02:08:56;;;;;;;11.87;6.30;;;;;0.10;101924.00;;;;10462508;28;20645;-77
2021/04/12 02:14:13;;;;;;;10.33;5.93;;;;;0.20;101934.00;;;;10429602;28;20198;-76
2021/04/12 02:19:39;;;;;;;7.73;5.50;;;;;0.20;101939.00;;;;10445519;28;20217;-77
2021/04/12 02:24:44;;;;;;;9.47;5.87;;;;;0.20;101936.00;;;;10463020;28;20206;-76
2021/04/12 02:30:14;;;;;;;6.50;5.00;;;;;0.20;101953.00;;;;10445898;28;20232;-76
2021/04/12 02:35:33;;;;;;;8.80;5.63;;;;;0.20;101944.00;;;;10446722;28;20190;-77
2021/04/12 02:41:13;;;;;;;10.33;5.57;;;;;0.20;101948.00;;;;10461940;28;20210;-77
2021/04/12 02:46:39;;;;;;;9.97;5.20;;;;;0.10;101951.00;;;;10443484;28;20219;-77
2021/04/12 02:51:50;;;;;;;9.50;4.97;;;;;0.00;101952.00;;;;10420252;28;20237;-76
2021/04/12 02:57:08;;;;;;;8.63;5.13;;;;;0.00;101961.00;;;;10386590;28;20253;-77
2021/04/12 03:02:39;;;;;;;8.80;6.43;;;;;0.10;101962.00;;;;10418760;28;20215;-77
2021/04/12 03:08:15;;;;;;;7.10;5.47;;;;;0.20;101968.00;;;;10419455;28;20195;-77
2021/04/12 03:13:28;;;;;;;8.83;5.70;;;;;0.30;101975.00;;;;10418584;28;20183;-77
2021/04/12 03:19:07;;;;;;;14.00;5.60;;;;;0.40;101972.00;;;;10417345;28;20565;-77
2021/04/12 03:24:14;;;;;;;7.27;5.20;;;;;0.50;101984.00;;;;10400194;28;20268;-77
2021/04/12 03:29:41;;;;;;;5.97;4.47;;;;;0.60;101978.00;;;;10417229;28;20190;-77
2021/04/12 03:35:01;;;;;;;6.60;5.87;;;;;0.60;101978.00;;;;10415813;28;20234;-77
2021/04/12 03:40:31;;;;;;;7.60;5.33;;;;;0.70;101978.00;;;;10416960;28;20244;-77
2021/04/12 03:46:06;;;;;;;9.10;5.43;;;;;0.70;101979.00;;;;10415887;28;20215;-76
2021/04/12 03:51:08;;;;;;;11.73;4.93;;;;;0.60;101980.00;;;;10416028;28;20600;-77
2021/04/12 03:56:39;;;;;;;6.93;4.90;;;;;0.60;101982.00;;;;10399162;28;20190;-77
2021/04/12 04:01:56;;;;;;;10.57;5.17;;;;;0.60;101975.00;;;;10414930;28;20273;-77
2021/04/12 04:06:57;;;;;;;8.37;5.57;;;;;0.70;101991.00;;;;10415366;28;20191;-77
2021/04/12 04:12:11;;;;;;;6.43;4.77;;;;;0.70;101989.00;;;;10432192;28;20187;-77
2021/04/12 04:17:52;;;;;;;7.47;4.73;;;;;0.60;101992.00;;;;10399062;28;20191;-77
2021/04/12 04:23:13;;;;;;;6.87;4.70;;;;;0.60;102002.00;;;;10414977;28;20209;-77
2021/04/12 04:28:45;;;;;;;10.97;5.43;;;;;0.50;102013.00;;;;10398071;28;20194;-77
2021/04/12 04:34:13;;;;;;;7.83;4.20;;;;;0.40;102009.00;;;;10414617;28;20183;-77
2021/04/12 04:39:27;;;;;;;5.53;4.30;;;;;0.30;102009.00;;;;10430750;28;20545;-77
2021/04/12 04:45:16;;;;;;;8.10;4.90;;;;;0.20;102020.00;;;;10414650;28;20227;-77
2021/04/12 04:50:42;;;;;;;7.20;4.43;;;;;0.20;102020.00;;;;10409543;28;20577;-77
2021/04/12 04:56:02;;;;;;;11.73;6.23;;;;;0.30;102025.00;;;;10413824;28;20276;-77
2021/04/12 05:01:14;;;;;;;12.43;6.63;;;;;0.40;102041.00;;;;10380567;28;20655;-77
2021/04/12 05:06:30;;;;;;;11.83;6.27;;;;;0.60;102029.00;;;;10413515;28;20194;-77
2021/04/12 05:11:44;;;;;;;13.97;12.30;;;;;0.80;102045.00;;;;10415387;28;20270;-77
2021/04/12 05:16:58;;;;;;;37.50;27.90;;;;;0.80;102051.00;;;;10417698;28;20214;-77
2021/04/12 05:22:22;;;;;;;20.60;14.57;;;;;0.90;102061.00;;;;10418933;28;20215;-77
2021/04/12 05:28:00;;;;;;;13.13;7.60;;;;;1.00;102062.00;;;;10442513;28;20207;-77
2021/04/12 05:33:30;;;;;;;12.10;6.47;;;;;1.30;102080.00;;;;10408888;28;20199;-77
2021/04/12 05:38:41;;;;;;;19.27;15.57;;;;;1.90;102085.00;;;;10426105;28;20206;-77
2021/04/12 05:44:06;;;;;;;12.20;7.70;;;;;3.00;102097.00;;;;10452405;28;20229;-78
2021/04/12 05:49:38;;;;;;;8.53;6.90;;;;;3.90;102119.00;;;;10494967;28;20247;-78
2021/04/12 05:54:39;;;;;;;7.70;4.20;;;;;4.10;102136.00;;;;10476212;28;20186;-78
2021/04/12 05:59:44;;;;;;;9.83;4.70;;;;;4.60;102139.00;;;;10492276;28;20250;-78
2021/04/12 06:05:01;;;;;;;7.67;3.70;;;;;4.60;102147.00;;;;10493017;28;20300;-77
2021/04/12 06:10:18;;;;;;;8.10;3.63;;;;;2.90;102160.00;;;;10491364;28;20197;-79
2021/04/12 06:15:38;;;;;;;4.77;3.53;;;;;2.10;102157.00;;;;10489844;28;20204;-78
2021/04/12 06:21:17;;;;;;;5.23;3.40;;;;;1.90;102151.00;;;;10491103;28;20300;-77
2021/04/12 06:26:34;;;;;;;6.90;4.00;;;;;1.90;102158.00;;;;10472682;28;20556;-76
2021/04/12 06:32:00;;;;;;;10.13;4.90;;;;;1.90;102160.00;;;;10418670;28;20183;-75
2021/04/12 06:37:33;;;;;;;8.67;5.60;;;;;2.00;102168.00;;;;10417436;28;20704;-75
2021/04/12 06:42:40;;;;;;;7.57;5.80;;;;;2.90;102173.00;;;;10418403;28;20242;-76
2021/04/12 06:48:10;;;;;;;6.40;4.23;;;;;4.10;102189.00;;;;10445394;28;20281;-76
2021/04/12 06:53:41;;;;;;;4.37;3.50;;;;;4.80;102188.00;;;;10473828;28;20187;-77
2021/04/12 06:58:54;;;;;;;5.17;2.93;;;;;5.50;102193.00;;;;10456216;28;20585;-78
2021/04/12 07:04:32;;;;;;;5.97;2.80;;;;;6.00;102198.00;;;;10443965;28;20526;-79
2021/04/12 07:10:08;;;;;;;5.07;2.77;;;;;6.50;102201.00;;;;10425910;28;20206;-78
2021/04/12 07:15:53;;;;;;;5.70;3.40;;;;;7.00;102201.00;;;;10404252;28;20202;-77
2021/04/12 07:20:54;;;;;;;3.97;2.43;;;;;7.30;102201.00;;;;10465882;28;20213;-78
2021/04/12 07:26:05;;;;;;;6.33;2.53;;;;;7.60;102191.00;;;;10438006;28;20191;-78
2021/04/12 07:31:18;;;;;;;4.53;2.07;;;;;8.00;102190.00;;;;10431090;28;20198;-77
2021/04/12 07:36:43;;;;;;;6.37;2.10;;;;;8.20;102188.00;;;;10438471;28;20243;-78
2021/04/12 07:42:10;;;;;;;3.37;2.27;;;;;8.50;102192.00;;;;10431243;28;20237;-78
2021/04/12 07:47:29;;;;;;;5.33;2.13;;;;;8.90;102189.00;;;;10446958;28;20194;-78
2021/04/12 07:52:52;;;;;;;7.57;2.57;;;;;9.40;102171.00;;;;10464527;28;20182;-78
2021/04/12 07:58:46;;;;;;;4.07;2.30;;;;;9.50;102166.00;;;;10442758;28;20208;-78
2021/04/12 08:03:58;;;;;;;5.30;1.90;;;;;9.70;102165.00;;;;10429959;28;20233;-78
2021/04/12 08:10:17;;;;;;;3.60;1.97;;;;;10.10;102139.00;;;;10485910;27;20604;-78
2021/04/12 08:16:39;;;;;;;4.70;1.97;;;;;10.50;102135.00;;;;10527026;28;20276;-76
2021/04/12 08:22:48;;;;;;;7.67;1.90;;;;;11.10;102137.00;;;;10499245;28;20251;-76
2021/04/12 08:28:44;;;;;;;5.30;2.50;;;;;11.60;102131.00;;;;10535228;28;20200;-76
2021/04/12 08:34:39;;;;;;;6.10;2.10;;;;;12.60;102110.00;;;;10539197;28;20276;-76
2021/04/12 08:40:52;;;;;;;6.17;2.20;;;;;13.40;102120.00;;;;10503490;28;20220;-76
2021/04/12 08:47:06;;;;;;;4.27;1.70;;;;;12.20;102136.00;;;;10504176;28;20213;-76
2021/04/12 10:57:21;;;;;;;5.27;3.63;;;;;3.00;102305.00;;;;10524946;27;20614;-88
2021/04/12 11:02:44;;;;;;;5.60;5.00;;;;;5.20;102286.00;;;;10447318;28;20194;-79
2021/04/12 11:08:25;;;;;;;8.23;5.73;;;;;6.90;102271.00;;;;10477041;28;20280;-91
2021/04/12 11:13:46;;;;;;;7.70;5.50;;;;;7.90;102260.00;;;;10471429;28;20229;-82
2021/04/12 17:04:34;;;;;;;3.70;2.80;;;;;7.00;102395.00;;;;10876821;24;20267;-77
2021/04/12 17:17:11;;;;;;;4.37;2.90;;;;;6.40;102399.00;;;;9857980;30;20212;-76
2021/04/12 17:22:35;;;;;;;3.13;2.37;;;;;6.40;102403.00;;;;9868722;30;20287;-76
2021/04/12 17:28:15;;;;;;;2.43;2.20;;;;;6.40;102404.00;;;;9894791;29;20613;-77
2021/04/12 17:33:24;;;;;;;3.37;2.20;;;;;6.40;102404.00;;;;9906227;30;20211;-78
2021/04/12 17:38:45;;;;;;;5.37;2.33;;;;;6.20;102401.00;;;;9909022;30;20239;-77
2021/04/12 17:44:13;;;;;;;2.30;1.70;;;;;6.10;102420.00;;;;9868546;30;20780;-76
2021/04/12 17:49:39;;;;;;;3.00;2.30;;;;;5.90;102422.00;;;;9883708;30;20204;-76
2021/04/12 17:54:44;;;;;;;3.77;2.17;;;;;5.80;102419.00;;;;9868793;30;20223;-77
2021/04/12 17:59:53;;;;;;;2.83;2.30;;;;;5.70;102418.00;;;;9872284;30;20302;-77
2021/04/12 18:05:12;;;;;;;3.47;2.90;;;;;5.50;102433.00;;;;9881032;30;20599;-77
2021/04/12 18:10:44;;;;;;;5.07;3.20;;;;;5.40;102435.00;;;;10581451;24;20194;31
2021/04/12 18:16:15;;;;;;;2.70;2.50;;;;;5.30;102436.00;;;;9808397;30;20274;-79
2021/04/12 18:21:38;;;;;;;4.50;2.77;;;;;5.00;102447.00;;;;9849086;29;20209;-79
2021/04/12 18:26:43;;;;;;;4.00;2.93;;;;;4.80;102454.00;;;;9806401;30;20244;-79
2021/04/12 18:31:58;;;;;;;4.53;3.33;;;;;4.60;102459.00;;;;9827137;30;20219;-79
2021/04/12 18:37:04;;;;;;;4.27;3.10;;;;;4.50;102474.00;;;;9856212;29;20271;-79
2021/04/12 18:42:46;;;;;;;6.70;3.70;;;;;4.30;102478.00;;;;9796255;30;20248;-79
2021/04/12 18:48:08;;;;;;;6.37;3.73;;;;;4.00;102493.00;;;;9835839;29;20701;-79
2021/04/12 18:53:22;;;;;;;6.83;3.43;;;;;3.70;102487.00;;;;9837906;30;20220;-79
2021/04/12 18:58:45;;;;;;;5.17;3.57;;;;;3.40;102499.00;;;;9839497;30;20231;-79
2021/04/12 19:03:55;;;;;;;9.63;4.17;;;;;3.20;102504.00;;;;9821043;30;20213;-71
2021/04/12 19:09:09;;;;;;;4.47;3.53;;;;;3.10;102524.00;;;;9825571;30;20255;-72
2021/04/12 19:14:22;;;;;;;7.90;4.10;;;;;2.90;102525.00;;;;9806004;30;20229;-71
2021/04/12 19:19:45;;;;;;;4.57;3.47;;;;;2.70;102525.00;;;;9802423;30;20233;-72
2021/04/12 19:25:08;;;;;;;4.17;3.53;;;;;2.50;102531.00;;;;9788557;30;20213;-72
2021/04/12 19:30:39;;;;;;;5.07;3.73;;;;;2.40;102543.00;;;;9799075;30;20661;-72
2021/04/12 19:35:50;;;;;;;6.90;4.37;;;;;2.20;102545.00;;;;9800806;30;20233;-72
2021/04/12 19:41:19;;;;;;;8.10;3.70;;;;;2.10;102549.00;;;;9794679;30;20232;-72
2021/04/12 19:46:21;;;;;;;5.73;3.27;;;;;1.90;102555.00;;;;9809118;30;20299;-72
2021/04/12 19:52:01;;;;;;;6.70;3.90;;;;;1.70;102556.00;;;;9808336;30;20201;-72
2021/04/12 19:57:38;;;;;;;4.40;3.67;;;;;1.50;102558.00;;;;9790830;30;20229;-72
2021/04/12 20:02:45;;;;;;;6.90;4.20;;;;;1.40;102561.00;;;;9788288;30;20554;-72
2021/04/12 20:08:22;;;;;;;7.30;4.30;;;;;1.30;102548.00;;;;9803851;30;20241;-72
2021/04/12 20:13:46;;;;;;;6.43;4.13;;;;;1.20;102560.00;;;;9778070;30;20241;-73
2021/04/12 20:18:57;;;;;;;5.87;4.57;;;;;1.10;102569.00;;;;9805985;30;20292;-72
2021/04/12 20:24:24;;;;;;;13.67;5.63;;;;;1.00;102566.00;;;;9787595;30;20267;-72
2021/04/12 20:29:33;;;;;;;12.80;7.27;;;;;0.90;102573.00;;;;9812909;30;20209;-72
2021/04/12 20:34:45;;;;;;;13.90;7.30;;;;;0.90;102579.00;;;;9775884;30;20233;-72
2021/04/12 20:39:53;;;;;;;11.37;6.73;;;;;0.80;102580.00;;;;9807015;30;20940;-73
2021/04/12 20:45:22;;;;;;;9.57;6.70;;;;;0.70;102579.00;;;;9777007;30;20277;-72
2021/04/12 20:50:40;;;;;;;9.00;6.50;;;;;0.60;102586.00;;;;9792131;30;20217;-72
2021/04/12 20:56:12;;;;;;;11.00;6.83;;;;;0.50;102593.00;;;;9763186;30;20626;-72
2021/04/12 21:01:41;;;;;;;9.30;6.67;;;;;0.50;102594.00;;;;9790173;30;20325;-73
2021/04/12 21:06:47;;;;;;;14.20;6.90;;;;;0.40;102593.00;;;;9775518;30;20283;-72
2021/04/12 21:11:50;;;;;;;14.43;7.80;;;;;0.30;102592.00;;;;9789714;30;20245;-73
2021/04/12 21:16:56;;;;;;;13.87;7.37;;;;;0.30;102606.00;;;;9760265;30;20292;-72
2021/04/12 21:22:09;;;;;;;12.70;7.87;;;;;0.20;102602.00;;;;9774692;30;20324;-72
2021/04/12 21:27:20;;;;;;;10.03;6.93;;;;;0.10;102612.00;;;;9790432;30;20213;-73
2021/04/12 21:32:30;;;;;;;15.00;7.27;;;;;0.10;102608.00;;;;9804667;30;20586;-73
2021/04/12 21:37:38;;;;;;;11.87;6.97;;;;;0.10;102616.00;;;;9792616;30;20217;-73
2021/04/12 21:42:48;;;;;;;11.90;7.17;;;;;0.10;102624.00;;;;9805353;29;20245;-72
2021/04/12 21:47:54;;;;;;;9.70;7.40;;;;;0.00;102622.00;;;;9776505;30;20221;-73
2021/04/12 21:53:11;;;;;;;8.83;6.50;;;;;-0.10;102623.00;;;;9789399;30;20275;-72
2021/04/12 21:58:40;;;;;;;11.40;7.20;;;;;-0.10;102624.00;;;;9769061;30;21166;-73
2021/04/12 22:04:05;;;;;;;12.03;7.03;;;;;-0.20;102639.00;;;;9787769;30;20217;-73
2021/04/12 22:09:27;;;;;;;12.67;6.53;;;;;-0.30;102627.00;;;;9788517;30;20209;-72
2021/04/12 22:15:01;;;;;;;11.20;7.27;;;;;-0.30;102635.00;;;;9791187;30;20241;-72
2021/04/12 22:20:11;;;;;;;10.20;6.70;;;;;-0.40;102629.00;;;;9773189;30;20318;-73
2021/04/12 22:25:22;;;;;;;14.03;7.53;;;;;-0.40;102650.00;;;;9802934;30;20259;-72
2021/04/12 22:30:37;;;;;;;13.37;7.83;;;;;-0.50;102641.00;;;;9802923;30;20659;-72
2021/04/12 22:46:08;;;;;;;11.53;8.17;;;;;-0.60;102650.00;;;;9786560;30;20228;-72
2021/04/12 22:51:38;;;;;;;11.80;7.57;;;;;-0.60;102660.00;;;;9787517;30;20217;-73
2021/04/12 22:57:03;;;;;;;11.60;7.53;;;;;-0.60;102650.00;;;;9787535;30;20295;-72
2021/04/12 23:02:06;;;;;;;11.53;8.30;;;;;-0.60;102663.00;;;;9786710;30;20642;-72
2021/04/12 23:07:09;;;;;;;11.70;7.43;;;;;-0.60;102663.00;;;;9787763;30;20225;-72
2021/04/12 23:12:15;;;;;;;13.97;7.90;;;;;-0.70;102678.00;;;;9802333;30;20306;-73
2021/04/12 23:17:20;;;;;;;14.60;8.30;;;;;-0.70;102672.00;;;;9801706;30;20236;-73
2021/04/12 23:22:30;;;;;;;17.20;9.00;;;;;-0.70;102679.00;;;;9801876;30;20209;-72
2021/04/12 23:27:35;;;;;;;16.00;9.03;;;;;-0.70;102683.00;;;;9786260;30;20369;-72
2021/04/12 23:32:38;;;;;;;13.37;8.37;;;;;-0.60;102686.00;;;;9778483;30;20277;-72
2021/04/12 23:37:48;;;;;;;12.17;8.27;;;;;-0.60;102683.00;;;;9785360;30;20233;-73
2021/04/12 23:42:50;;;;;;;14.33;8.70;;;;;-0.60;102686.00;;;;9800961;30;20272;-72
2021/04/12 23:48:16;;;;;;;13.93;8.40;;;;;-0.70;102678.00;;;;9771976;30;20307;-72
2021/04/12 23:53:42;;;;;;;14.67;8.60;;;;;-0.70;102692.00;;;;9763622;30;20226;-72
2021/04/12 23:58:44;;;;;;;12.17;8.00;;;;;-0.70;102689.00;;;;9786615;30;20662;-72
